createdAt,value
2019-01-17T00:00:51.269Z,95595.77
2019-01-17T00:03:39.557Z,95609.73
2019-01-17T00:06:34.113Z,95613.91
2019-01-17T00:09:31.597Z,95614.36
2019-01-17T00:12:07.857Z,95612.46
2019-01-17T00:15:05.498Z,95614.16
2019-01-17T00:17:52.947Z,95618.44
2019-01-17T00:20:56.698Z,95616.77
2019-01-17T00:23:43.664Z,95622.67
2019-01-17T00:26:31.940Z,95632.70
2019-01-17T00:29:23.148Z,95632.11
2019-01-17T00:32:08.910Z,95634.31
2019-01-17T00:34:52.787Z,95637.73
2019-01-17T00:37:53.590Z,95639.08
2019-01-17T00:40:33.459Z,95628.72
2019-01-17T00:43:22.052Z,95631.20
2019-01-17T00:46:10.288Z,95633.85
2019-01-17T00:49:01.660Z,95632.72
2019-01-17T00:51:50.258Z,95633.66
2019-01-17T00:54:41.779Z,95633.22
2019-01-17T00:57:42.042Z,95631.68
2019-01-17T01:00:31.630Z,95633.52
2019-01-17T01:03:12.109Z,95640.13
2019-01-17T01:06:10.440Z,95635.99
2019-01-17T01:08:58.737Z,95636.32
2019-01-17T01:11:41.139Z,95632.20
2019-01-17T01:14:25.228Z,95635.99
2019-01-17T01:17:15.914Z,95637.88
2019-01-17T01:19:59.432Z,95635.04
2019-01-17T01:22:52.782Z,95626.88
2019-01-17T01:25:46.896Z,95630.55
2019-01-17T01:28:38.212Z,95636.82
2019-01-17T01:31:29.324Z,95636.75
2019-01-17T01:34:23.396Z,95635.72
2019-01-17T01:37:11.216Z,95635.22
2019-01-17T01:40:09.080Z,95621.75
2019-01-17T01:42:59.494Z,95624.88
2019-01-17T01:45:53.988Z,95623.30
2019-01-17T01:48:41.241Z,95624.58
2019-01-17T01:51:28.413Z,95615.41
2019-01-17T01:53:57.769Z,95622.23
2019-01-17T01:56:27.116Z,95628.20
2019-01-17T01:58:56.543Z,95625.30
2019-01-17T02:01:25.891Z,95621.56
2019-01-17T02:03:55.317Z,95613.77
2019-01-17T02:06:24.695Z,95606.95
2019-01-17T02:08:54.053Z,95610.14
2019-01-17T02:11:23.406Z,95611.41
2019-01-17T02:13:53.445Z,95615.31
2019-01-17T02:16:22.799Z,95612.84
2019-01-17T02:18:52.186Z,95609.35
2019-01-17T02:21:21.560Z,95612.06
2019-01-17T02:23:50.933Z,95610.39
2019-01-17T02:26:20.295Z,95611.61
2019-01-17T02:28:49.754Z,95610.02
2019-01-17T02:31:19.112Z,95614.52
2019-01-17T02:33:48.433Z,95622.81
2019-01-17T02:36:17.816Z,95628.25
2019-01-17T02:38:47.156Z,95618.64
2019-01-17T02:41:16.481Z,95619.13
2019-01-17T02:43:45.877Z,95616.20
2019-01-17T02:46:15.293Z,95620.19
2019-01-17T02:48:44.634Z,95618.69
2019-01-17T02:51:13.977Z,95615.82
2019-01-17T02:53:43.409Z,95611.97
2019-01-17T02:56:12.764Z,95609.69
2019-01-17T02:58:42.111Z,95604.08
2019-01-17T03:01:11.478Z,95601.69
2019-01-17T03:03:40.846Z,95599.56
2019-01-17T03:06:10.217Z,95597.55
2019-01-17T03:08:39.697Z,95592.21
2019-01-17T03:11:09.027Z,95598.00
2019-01-17T03:13:38.341Z,95593.05
2019-01-17T03:16:07.691Z,95588.43
2019-01-17T03:18:37.007Z,95597.38
2019-01-17T03:21:06.325Z,95595.25
2019-01-17T03:23:35.703Z,95587.13
2019-01-17T03:26:05.082Z,95578.63
2019-01-17T03:28:34.453Z,95576.71
2019-01-17T03:31:03.792Z,95578.77
2019-01-17T03:33:33.251Z,95577.41
2019-01-17T03:36:02.625Z,95577.45
2019-01-17T03:38:31.992Z,95578.63
2019-01-17T03:41:01.348Z,95573.55
2019-01-17T03:43:31.582Z,95576.70
2019-01-17T03:46:00.963Z,95575.67
2019-01-17T03:48:30.399Z,95575.16
2019-01-17T03:50:59.733Z,95569.80
2019-01-17T03:53:29.129Z,95564.45
2019-01-17T03:55:58.652Z,95565.19
2019-01-17T03:58:28.158Z,95569.25
2019-01-17T04:00:57.496Z,95570.31
2019-01-17T04:03:26.826Z,95577.28
2019-01-17T04:05:56.191Z,95581.94
2019-01-17T04:08:25.564Z,95580.11
2019-01-17T04:10:54.967Z,95576.02
2019-01-17T04:13:24.345Z,95584.50
2019-01-17T04:15:53.788Z,95584.12
2019-01-17T04:18:23.176Z,95604.30
2019-01-17T04:20:52.574Z,95609.84
2019-01-17T04:23:21.895Z,95607.70
2019-01-17T04:25:51.306Z,95614.22
2019-01-17T04:28:20.656Z,95614.20
2019-01-17T04:30:50.003Z,95599.73
2019-01-17T04:33:19.355Z,95604.58
2019-01-17T04:35:48.665Z,95606.56
2019-01-17T04:38:18.034Z,95607.93
2019-01-17T04:40:47.356Z,95613.29
2019-01-17T04:43:16.714Z,95609.05
2019-01-17T04:45:46.030Z,95617.16
2019-01-17T04:48:15.379Z,95612.51
2019-01-17T04:50:44.773Z,95610.56
2019-01-17T04:53:14.101Z,95616.63
2019-01-17T04:55:43.477Z,95610.92
2019-01-17T04:58:12.773Z,95616.76
2019-01-17T05:00:42.131Z,95617.45
2019-01-17T05:03:11.498Z,95623.66
2019-01-17T05:05:40.840Z,95623.19
2019-01-17T05:08:10.456Z,95617.27
2019-01-17T05:10:39.993Z,95619.35
2019-01-17T05:13:09.378Z,95623.05
2019-01-17T05:15:38.766Z,95631.22
2019-01-17T05:18:08.149Z,95620.83
2019-01-17T05:20:37.529Z,95626.24
2019-01-17T05:23:06.977Z,95632.61
2019-01-17T05:25:36.293Z,95622.77
2019-01-17T05:28:05.648Z,95620.83
2019-01-17T05:30:35.101Z,95614.31
2019-01-17T05:33:04.472Z,95617.25
2019-01-17T05:35:33.809Z,95612.73
2019-01-17T05:38:03.173Z,95619.13
2019-01-17T05:40:32.557Z,95611.83
2019-01-17T05:43:01.967Z,95614.98
2019-01-17T05:45:31.338Z,95613.67
2019-01-17T05:48:00.818Z,95608.69
2019-01-17T05:50:30.201Z,95614.52
2019-01-17T05:52:59.530Z,95613.97
2019-01-17T05:55:28.875Z,95618.70
2019-01-17T05:57:58.273Z,95614.53
2019-01-17T06:00:27.616Z,95608.45
2019-01-17T06:02:56.991Z,95611.74
2019-01-17T06:05:26.481Z,95612.73
2019-01-17T06:07:55.864Z,95613.96
2019-01-17T06:10:25.609Z,95608.64
2019-01-17T06:12:55.316Z,95611.66
2019-01-17T06:15:25.312Z,95603.78
2019-01-17T06:17:54.766Z,95620.01
2019-01-17T06:20:24.671Z,95612.97
2019-01-17T06:22:54.214Z,95609.95
2019-01-17T06:25:28.163Z,95612.14
2019-01-17T06:27:55.435Z,95607.09
2019-01-17T06:30:24.868Z,95601.95
2019-01-17T06:32:54.684Z,95605.86
2019-01-17T06:35:24.075Z,95601.38
2019-01-17T06:37:53.450Z,95600.51
2019-01-17T06:40:28.672Z,95603.49
2019-01-17T06:42:58.000Z,95612.13
2019-01-17T06:45:27.339Z,95605.57
2019-01-17T06:47:56.748Z,95599.34
2019-01-17T06:50:26.562Z,95600.28
2019-01-17T06:52:55.917Z,95593.91
2019-01-17T06:55:25.671Z,95598.34
2019-01-17T06:57:55.142Z,95601.34
2019-01-17T07:00:24.536Z,95605.08
2019-01-17T07:02:54.331Z,95600.12
2019-01-17T07:05:24.057Z,95608.32
2019-01-17T07:07:53.527Z,95608.32
2019-01-17T07:10:22.939Z,95604.90
2019-01-17T07:12:52.330Z,95610.37
2019-01-17T07:15:24.180Z,95620.29
2019-01-17T07:17:53.584Z,95616.28
2019-01-17T07:20:22.953Z,95613.36
2019-01-17T07:22:52.311Z,95620.52
2019-01-17T07:25:21.747Z,95615.25
2019-01-17T07:27:52.939Z,95617.89
2019-01-17T07:30:23.789Z,95617.87
2019-01-17T07:32:53.137Z,95624.28
2019-01-17T07:35:22.528Z,95624.76
2019-01-17T07:37:52.227Z,95629.01
2019-01-17T07:40:23.892Z,95638.16
2019-01-17T07:42:53.224Z,95636.19
2019-01-17T07:45:31.879Z,95642.83
2019-01-17T07:48:01.251Z,95636.70
2019-01-17T07:50:30.640Z,95634.57
2019-01-17T07:53:00.034Z,95640.92
2019-01-17T07:55:29.373Z,95647.44
2019-01-17T07:57:58.682Z,95635.18
2019-01-17T08:00:28.001Z,95650.63
2019-01-17T08:02:57.387Z,95645.36
2019-01-17T08:05:26.782Z,95653.33
2019-01-17T08:07:56.117Z,95650.73
2019-01-17T08:10:25.523Z,95655.09
2019-01-17T08:12:54.959Z,95653.45
2019-01-17T08:15:24.335Z,95661.47
2019-01-17T08:17:53.709Z,95659.89
2019-01-17T08:20:24.501Z,95658.29
2019-01-17T08:22:54.329Z,95668.55
2019-01-17T08:25:23.678Z,95670.75
2019-01-17T08:27:52.983Z,95665.73
2019-01-17T08:30:27.463Z,95497.34
2019-01-17T08:32:56.804Z,95666.98
2019-01-17T08:35:26.118Z,95670.18
2019-01-17T08:37:55.905Z,95670.78
2019-01-17T08:40:33.556Z,95670.23
2019-01-17T08:43:02.878Z,95670.45
2019-01-17T08:45:32.202Z,95665.88
2019-01-17T08:48:01.588Z,95673.48
2019-01-17T08:50:31.052Z,95671.86
2019-01-17T08:53:00.418Z,95672.80
2019-01-17T08:55:29.774Z,95668.73
2019-01-17T08:57:59.123Z,95674.64
2019-01-17T09:00:28.487Z,95680.06
2019-01-17T09:02:57.824Z,95669.56
2019-01-17T09:05:27.301Z,95665.22
2019-01-17T09:07:56.672Z,95660.33
2019-01-17T09:10:28.040Z,95667.37
2019-01-17T09:12:57.605Z,95660.16
2019-01-17T09:15:29.521Z,95655.64
2019-01-17T09:17:58.950Z,95649.09
2019-01-17T09:20:28.269Z,95653.47
2019-01-17T09:22:57.715Z,95651.42
2019-01-17T09:25:27.065Z,95645.20
2019-01-17T09:27:56.390Z,95643.09
2019-01-17T09:30:25.791Z,95644.09
2019-01-17T09:32:55.187Z,95641.33
2019-01-17T09:35:24.525Z,95640.62
2019-01-17T09:37:53.922Z,95638.59
2019-01-17T09:40:23.324Z,95633.93
2019-01-17T09:42:52.636Z,95635.49
2019-01-17T09:45:22.021Z,95619.78
2019-01-17T09:47:51.400Z,95622.47
2019-01-17T09:50:23.091Z,95622.47
2019-01-17T09:52:52.430Z,95623.88
2019-01-17T09:55:21.772Z,95618.19
2019-01-17T09:57:51.128Z,95617.39
2019-01-17T10:00:22.910Z,95610.83
2019-01-17T10:02:52.253Z,95605.35
2019-01-17T10:05:21.605Z,95608.36
2019-01-17T10:07:51.368Z,95606.91
2019-01-17T10:10:20.797Z,95600.73
2019-01-17T10:12:50.473Z,95599.45
2019-01-17T10:15:23.719Z,95596.23
2019-01-17T10:18:17.333Z,95578.70
2019-01-17T10:21:14.994Z,95578.53
2019-01-17T10:24:05.022Z,95579.33
2019-01-17T10:27:10.215Z,95574.61
2019-01-17T10:30:14.161Z,95571.50
2019-01-17T10:33:21.586Z,95565.91
2019-01-17T10:36:15.390Z,95567.42
2019-01-17T10:39:21.581Z,95548.92
2019-01-17T10:42:38.910Z,95547.25
2019-01-17T10:45:36.918Z,95539.70
2019-01-17T10:48:36.146Z,95540.31
2019-01-17T10:51:52.238Z,95528.09
2019-01-17T10:55:07.434Z,95530.89
2019-01-17T10:58:20.831Z,95531.28
2019-01-17T11:01:46.298Z,95526.34
2019-01-17T11:04:50.468Z,95514.52
2019-01-17T11:08:15.758Z,95519.05
2019-01-17T11:11:08.691Z,95517.66
2019-01-17T11:13:57.816Z,95509.92
2019-01-17T11:17:06.887Z,95504.28
2019-01-17T11:20:05.456Z,95507.20
2019-01-17T11:23:06.787Z,95506.11
2019-01-17T11:25:56.841Z,95506.18
2019-01-17T11:29:04.376Z,95493.45
2019-01-17T11:32:09.537Z,95506.11
2019-01-17T11:35:13.430Z,95495.34
2019-01-17T11:38:13.784Z,95487.11
2019-01-17T11:41:25.735Z,95488.95
2019-01-17T11:45:03.388Z,95483.45
2019-01-17T11:48:21.904Z,95485.70
2019-01-17T11:51:36.423Z,95475.95
2019-01-17T11:54:56.027Z,95477.47
2019-01-17T11:57:32.369Z,95475.36
2019-01-17T12:00:53.290Z,95468.28
2019-01-17T12:03:58.368Z,95463.77
2019-01-17T12:06:27.702Z,95459.19
2019-01-17T12:08:57.074Z,95452.05
2019-01-17T12:11:26.415Z,95452.13
2019-01-17T12:13:55.756Z,95448.48
2019-01-17T12:16:25.236Z,95451.81
2019-01-17T12:18:54.561Z,95444.22
2019-01-17T12:21:23.904Z,95442.87
2019-01-17T12:23:53.399Z,95442.73
2019-01-17T12:26:22.821Z,95444.61
2019-01-17T12:28:52.142Z,95439.56
2019-01-17T12:31:21.587Z,95442.21
2019-01-17T12:33:50.966Z,95441.61
2019-01-17T12:36:22.124Z,95433.15
2019-01-17T12:38:51.468Z,95432.38
2019-01-17T12:41:20.894Z,95434.23
2019-01-17T12:43:50.285Z,95428.51
2019-01-17T12:46:19.649Z,95435.86
2019-01-17T12:48:49.043Z,95428.08
2019-01-17T12:51:18.390Z,95422.86
2019-01-17T12:53:47.736Z,95432.64
2019-01-17T12:56:17.109Z,95427.89
2019-01-17T12:58:46.428Z,95423.42
2019-01-17T13:01:16.107Z,95424.62
2019-01-17T13:03:45.694Z,95423.73
2019-01-17T13:06:15.044Z,95418.37
2019-01-17T13:08:44.372Z,95425.27
2019-01-17T13:11:13.719Z,95424.58
2019-01-17T13:13:43.091Z,95421.95
2019-01-17T13:16:12.786Z,95424.33
2019-01-17T13:18:42.477Z,95422.02
2019-01-17T13:21:11.897Z,95429.92
2019-01-17T13:23:41.367Z,95431.20
2019-01-17T13:26:10.692Z,95434.42
2019-01-17T13:28:40.044Z,95430.89
2019-01-17T13:31:09.400Z,95429.91
2019-01-17T13:33:38.798Z,95429.33
2019-01-17T13:36:12.035Z,95436.06
2019-01-17T13:38:41.500Z,95431.90
2019-01-17T13:41:10.893Z,95428.73
2019-01-17T13:43:40.312Z,95431.81
2019-01-17T13:46:09.688Z,95429.88
2019-01-17T13:48:39.009Z,95433.38
2019-01-17T13:51:08.840Z,95429.13
2019-01-17T13:53:39.695Z,95432.53
2019-01-17T13:56:09.138Z,95434.38
2019-01-17T13:58:38.534Z,95426.21
2019-01-17T14:01:07.881Z,95430.83
2019-01-17T14:03:37.569Z,95435.05
2019-01-17T14:06:06.885Z,95430.55
2019-01-17T14:08:36.219Z,95429.84
2019-01-17T14:11:06.020Z,95423.01
2019-01-17T14:13:35.400Z,95425.77
2019-01-17T14:16:05.141Z,95426.83
2019-01-17T14:18:34.475Z,95420.65
2019-01-17T14:21:04.015Z,95422.59
2019-01-17T14:23:33.390Z,95418.90
2019-01-17T14:26:02.759Z,95413.68
2019-01-17T14:28:32.143Z,95416.22
2019-01-17T14:31:01.699Z,95414.89
2019-01-17T14:33:31.179Z,95413.66
2019-01-17T14:36:00.609Z,95416.41
2019-01-17T14:38:29.988Z,95412.52
2019-01-17T14:40:59.357Z,95408.91
2019-01-17T14:43:28.881Z,95416.19
2019-01-17T14:45:58.262Z,95412.70
2019-01-17T14:48:27.659Z,95415.38
2019-01-17T14:50:57.118Z,95412.48
2019-01-17T14:53:26.489Z,95410.54
2019-01-17T14:56:01.918Z,95413.25
2019-01-17T14:58:31.361Z,95406.50
2019-01-17T15:01:00.772Z,95417.27
2019-01-17T15:03:30.102Z,95412.72
2019-01-17T15:05:59.389Z,95414.95
2019-01-17T15:08:28.847Z,95420.52
2019-01-17T15:10:58.222Z,95418.63
2019-01-17T15:13:27.665Z,95415.88
2019-01-17T15:15:57.068Z,95424.11
2019-01-17T15:18:26.454Z,95426.34
2019-01-17T15:20:55.822Z,95425.89
2019-01-17T15:23:25.194Z,95422.78
2019-01-17T15:25:54.754Z,95420.55
2019-01-17T15:28:24.147Z,95421.88
2019-01-17T15:30:53.516Z,95420.33
2019-01-17T15:33:22.825Z,95426.30
2019-01-17T15:35:52.248Z,95421.58
2019-01-17T15:38:21.799Z,95419.84
2019-01-17T15:40:51.265Z,95419.39
2019-01-17T15:43:20.662Z,95424.38
2019-01-17T15:45:51.893Z,95419.44
2019-01-17T15:48:21.207Z,95431.59
2019-01-17T15:50:50.564Z,95428.34
2019-01-17T15:53:19.970Z,95426.06
2019-01-17T15:55:49.629Z,95426.20
2019-01-17T15:58:18.977Z,95427.86
2019-01-17T16:00:48.270Z,95417.67
2019-01-17T16:03:17.574Z,95427.02
2019-01-17T16:05:47.048Z,95428.73
2019-01-17T16:08:16.873Z,95433.34
2019-01-17T16:10:46.235Z,95422.20
2019-01-17T16:13:15.856Z,95425.73
2019-01-17T16:16:03.673Z,95438.09
2019-01-17T16:18:32.992Z,95300.56
2019-01-17T16:21:02.363Z,95434.61
2019-01-17T16:23:31.777Z,95432.50
2019-01-17T16:26:02.402Z,95426.09
2019-01-17T16:28:31.866Z,95433.57
2019-01-17T16:31:01.211Z,95437.34
2019-01-17T16:33:30.579Z,95438.70
2019-01-17T16:35:59.912Z,95435.27
2019-01-17T16:38:29.292Z,95440.23
2019-01-17T16:40:58.748Z,95442.45
2019-01-17T16:43:28.239Z,95441.05
2019-01-17T16:45:57.603Z,95441.15
2019-01-17T16:48:26.934Z,95436.97
2019-01-17T16:50:56.280Z,95446.94
2019-01-17T16:53:25.638Z,95444.96
2019-01-17T16:55:54.951Z,95444.96
2019-01-17T16:58:24.304Z,95443.70
2019-01-17T17:00:53.709Z,95434.36
2019-01-17T17:03:23.028Z,95446.91
2019-01-17T17:05:52.377Z,95439.12
2019-01-17T17:08:21.702Z,95439.12
2019-01-17T17:10:51.169Z,95428.58
2019-01-17T17:13:20.568Z,95447.07
2019-01-17T17:15:49.946Z,95437.50
2019-01-17T17:18:19.283Z,95437.50
2019-01-17T17:20:48.799Z,95447.02
2019-01-17T17:23:18.260Z,95451.82
2019-01-17T17:25:47.680Z,95451.82
2019-01-17T17:28:17.023Z,95451.55
2019-01-17T17:30:46.400Z,95247.52
2019-01-17T17:33:15.782Z,95457.53
2019-01-17T17:35:45.166Z,95458.63
2019-01-17T17:38:14.570Z,95472.17
2019-01-17T17:40:43.929Z,95462.30
2019-01-17T17:43:13.276Z,95456.53
2019-01-17T17:45:42.623Z,95457.61
2019-01-17T17:48:11.966Z,95457.61
2019-01-17T17:50:41.394Z,95455.75
2019-01-17T17:53:10.781Z,95465.37
2019-01-17T17:56:02.808Z,95466.72
2019-01-17T17:58:32.194Z,95467.87
2019-01-17T18:01:09.908Z,95467.09
2019-01-17T18:03:39.243Z,95461.41
2019-01-17T18:06:08.649Z,95467.50
2019-01-17T18:08:38.090Z,95468.35
2019-01-17T18:11:07.482Z,95472.89
2019-01-17T18:13:36.839Z,95472.89
2019-01-17T18:16:06.187Z,95460.47
2019-01-17T18:18:35.570Z,95471.13
2019-01-17T18:21:05.026Z,95471.13
2019-01-17T18:23:34.415Z,95481.53
2019-01-17T18:26:04.849Z,95478.09
2019-01-17T18:28:35.456Z,95480.73
2019-01-17T18:31:05.292Z,95482.91
2019-01-17T18:33:34.611Z,95484.78
2019-01-17T18:36:04.396Z,95487.17
2019-01-17T18:38:34.253Z,95491.47
2019-01-17T18:41:03.680Z,95480.31
2019-01-17T18:43:35.365Z,95480.58
2019-01-17T18:46:04.829Z,95490.67
2019-01-17T18:48:34.186Z,95489.09
2019-01-17T18:51:05.588Z,95483.73
2019-01-17T18:53:37.837Z,95480.31
2019-01-17T18:56:07.709Z,95477.67
2019-01-17T18:58:37.358Z,95482.98
2019-01-17T19:01:07.885Z,95490.67
2019-01-17T19:03:37.251Z,95494.66
2019-01-17T19:06:07.461Z,95488.30
2019-01-17T19:08:36.822Z,95495.98
2019-01-17T19:11:06.253Z,95494.13
2019-01-17T19:13:36.086Z,95319.60
2019-01-17T19:16:05.581Z,95505.80
2019-01-17T19:18:34.925Z,95506.08
2019-01-17T19:21:04.291Z,95500.52
2019-01-17T19:23:34.087Z,95497.59
2019-01-17T19:26:03.448Z,95506.64
2019-01-17T19:28:32.783Z,95510.06
2019-01-17T19:31:02.160Z,95510.61
2019-01-17T19:33:31.446Z,95515.64
2019-01-17T19:36:01.146Z,94965.02
2019-01-17T19:38:30.525Z,95515.66
2019-01-17T19:40:59.925Z,95505.05
2019-01-17T19:43:29.303Z,95508.49
2019-01-17T19:45:58.655Z,95505.28
2019-01-17T19:48:27.990Z,95510.60
2019-01-17T19:50:57.290Z,95511.91
2019-01-17T19:53:26.630Z,95516.16
2019-01-17T19:55:55.995Z,95510.34
2019-01-17T19:58:28.981Z,95510.59
2019-01-17T20:00:57.724Z,95509.02
2019-01-17T20:03:27.148Z,95507.66
2019-01-17T20:05:56.796Z,95515.36
2019-01-17T20:08:26.190Z,95506.07
2019-01-17T20:10:55.600Z,95507.94
2019-01-17T20:13:25.150Z,95511.89
2019-01-17T20:15:54.756Z,95518.51
2019-01-17T20:18:24.225Z,95512.69
2019-01-17T20:21:08.956Z,95516.97
2019-01-17T20:23:38.287Z,95505.55
2019-01-17T20:26:11.700Z,95510.83
2019-01-17T20:28:41.065Z,95504.48
2019-01-17T20:31:10.738Z,95510.30
2019-01-17T20:33:40.096Z,95506.57
2019-01-17T20:36:09.459Z,95502.05
2019-01-17T20:38:39.000Z,95500.41
2019-01-17T20:41:08.560Z,95507.54
2019-01-17T20:43:37.922Z,95507.81
2019-01-17T20:46:07.403Z,95504.89
2019-01-17T20:48:36.830Z,95509.86
2019-01-17T20:51:06.813Z,95506.17
2019-01-17T20:53:36.486Z,95503.78
2019-01-17T20:56:06.015Z,95502.41
2019-01-17T20:58:35.411Z,95510.56
2019-01-17T21:01:43.691Z,95513.55
2019-01-17T21:04:13.240Z,95507.41
2019-01-17T21:06:42.704Z,95515.59
2019-01-17T21:09:14.755Z,95513.20
2019-01-17T21:11:44.706Z,95518.51
2019-01-17T21:14:14.327Z,95513.21
2019-01-17T21:16:44.198Z,95509.70
2019-01-17T21:19:19.653Z,95503.87
2019-01-17T21:21:49.054Z,95510.23
2019-01-17T21:24:19.297Z,95509.67
2019-01-17T21:26:48.721Z,95509.97
2019-01-17T21:29:21.785Z,95505.44
2019-01-17T21:31:51.238Z,95518.35
2019-01-17T21:34:20.628Z,95510.70
2019-01-17T21:36:52.823Z,95514.14
2019-01-17T21:39:22.194Z,95513.97
2019-01-17T21:41:56.458Z,95506.13
2019-01-17T21:44:25.858Z,95514.58
2019-01-17T21:46:55.632Z,95502.13
2019-01-17T21:49:25.383Z,95508.38
2019-01-17T21:52:00.417Z,95507.02
2019-01-17T21:54:29.853Z,94716.80
2019-01-17T21:56:59.263Z,95516.84
2019-01-17T21:59:28.673Z,95503.27
2019-01-17T22:01:58.125Z,95516.05
2019-01-17T22:04:27.543Z,95505.63
2019-01-17T22:06:56.931Z,95503.99
2019-01-17T22:09:26.395Z,95508.22
2019-01-17T22:11:55.777Z,95497.94
2019-01-17T22:14:25.154Z,95495.92
2019-01-17T22:16:54.601Z,95504.63
2019-01-17T22:19:24.054Z,95496.92
2019-01-17T22:21:53.493Z,95494.23
2019-01-17T22:24:22.926Z,95500.18
2019-01-17T22:26:52.313Z,95494.48
2019-01-17T22:29:21.758Z,95495.66
2019-01-17T22:31:51.231Z,95497.50
2019-01-17T22:34:20.725Z,95503.55
2019-01-17T22:36:50.149Z,95498.28
2019-01-17T22:39:19.534Z,95503.67
2019-01-17T22:41:49.022Z,95494.02
2019-01-17T22:44:18.486Z,95486.71
2019-01-17T22:46:47.890Z,95486.78
2019-01-17T22:49:17.246Z,95485.75
2019-01-17T22:51:46.732Z,95488.62
2019-01-17T22:54:16.139Z,95491.42
2019-01-17T22:56:45.481Z,95487.98
2019-01-17T22:59:14.894Z,95491.33
2019-01-17T23:01:44.381Z,95486.86
2019-01-17T23:04:13.719Z,95484.34
2019-01-17T23:06:43.106Z,95489.08
2019-01-17T23:09:12.482Z,95477.08
2019-01-17T23:11:41.830Z,95477.81
2019-01-17T23:14:11.195Z,95484.73
2019-01-17T23:16:40.595Z,95474.86
2019-01-17T23:19:09.994Z,95482.14
2019-01-17T23:21:39.365Z,95454.34
2019-01-17T23:24:08.748Z,95471.73
2019-01-17T23:26:38.189Z,95470.59
2019-01-17T23:29:07.667Z,95466.83
2019-01-17T23:31:37.291Z,95469.59
2019-01-17T23:34:06.843Z,95471.80
2019-01-17T23:36:36.408Z,95475.64
2019-01-17T23:39:10.021Z,95472.98
2019-01-17T23:41:40.006Z,95466.98
2019-01-17T23:44:09.614Z,95470.58
2019-01-17T23:46:39.122Z,95466.35
2019-01-17T23:49:08.703Z,95461.70
2019-01-17T23:51:38.215Z,95459.91
2019-01-17T23:54:07.533Z,95457.27
2019-01-17T23:56:36.907Z,95455.33
2019-01-17T23:59:06.238Z,95458.83
